sensor_id;sensor_type;location;lat;lon;timestamp;temperature;humidity
39401;DHT22;54391;50.000;7.360;2022-10-23T00:01:35;12.50;99.90
39401;DHT22;54391;50.000;7.360;2022-10-23T00:04:06;12.40;99.90
39401;DHT22;54391;50.000;7.360;2022-10-23T00:06:34;12.40;99.90
39401;DHT22;54391;50.000;7.360;2022-10-23T00:09:04;12.30;99.90
39401;DHT22;54391;50.000;7.360;2022-10-23T00:11:33;12.30;99.90
39401;DHT22;54391;50.000;7.360;2022-10-23T00:14:03;12.30;99.90
39401;DHT22;54391;50.000;7.360;2022-10-23T00:16:31;12.30;99.90
39401;DHT22;54391;50.000;7.360;2022-10-23T00:18:59;12.30;99.90
39401;DHT22;54391;50.000;7.360;2022-10-23T00:21:29;12.20;99.90
39401;DHT22;54391;50.000;7.360;2022-10-23T00:23:56;12.30;99.90
39401;DHT22;54391;50.000;7.360;2022-10-23T00:26:23;12.30;99.90
39401;DHT22;54391;50.000;7.360;2022-10-23T00:28:52;12.20;99.90
39401;DHT22;54391;50.000;7.360;2022-10-23T00:31:21;12.30;99.90
39401;DHT22;54391;50.000;7.360;2022-10-23T00:33:49;12.30;99.90
39401;DHT22;54391;50.000;7.360;2022-10-23T00:36:19;12.30;99.90
39401;DHT22;54391;50.000;7.360;2022-10-23T00:38:48;12.40;99.90
39401;DHT22;54391;50.000;7.360;2022-10-23T00:41:19;12.40;99.90
39401;DHT22;54391;50.000;7.360;2022-10-23T00:43:58;12.40;99.90
39401;DHT22;54391;50.000;7.360;2022-10-23T00:46:28;12.40;99.90
39401;DHT22;54391;50.000;7.360;2022-10-23T00:48:56;12.40;99.90
39401;DHT22;54391;50.000;7.360;2022-10-23T00:51:24;12.30;99.90
39401;DHT22;54391;50.000;7.360;2022-10-23T00:53:57;12.40;99.90
39401;DHT22;54391;50.000;7.360;2022-10-23T00:56:27;12.40;99.90
39401;DHT22;54391;50.000;7.360;2022-10-23T00:58:56;12.40;99.90
39401;DHT22;54391;50.000;7.360;2022-10-23T01:01:25;12.40;99.90
39401;DHT22;54391;50.000;7.360;2022-10-23T01:03:53;12.40;99.90
39401;DHT22;54391;50.000;7.360;2022-10-23T01:06:30;12.30;99.90
39401;DHT22;54391;50.000;7.360;2022-10-23T01:09:08;12.30;99.90
39401;DHT22;54391;50.000;7.360;2022-10-23T01:11:42;12.20;99.90
39401;DHT22;54391;50.000;7.360;2022-10-23T01:14:19;12.20;99.90
39401;DHT22;54391;50.000;7.360;2022-10-23T01:16:55;12.20;99.90
39401;DHT22;54391;50.000;7.360;2022-10-23T01:19:36;12.20;99.90
39401;DHT22;54391;50.000;7.360;2022-10-23T01:22:14;12.10;99.90
39401;DHT22;54391;50.000;7.360;2022-10-23T01:24:52;12.20;99.90
39401;DHT22;54391;50.000;7.360;2022-10-23T01:27:26;12.20;99.90
39401;DHT22;54391;50.000;7.360;2022-10-23T01:30:03;12.20;99.90
39401;DHT22;54391;50.000;7.360;2022-10-23T01:32:38;12.20;99.90
39401;DHT22;54391;50.000;7.360;2022-10-23T01:35:13;12.10;99.90
39401;DHT22;54391;50.000;7.360;2022-10-23T01:37:45;12.10;99.90
39401;DHT22;54391;50.000;7.360;2022-10-23T01:40:19;11.90;99.90
39401;DHT22;54391;50.000;7.360;2022-10-23T01:42:52;11.90;99.90
39401;DHT22;54391;50.000;7.360;2022-10-23T01:45:28;12.00;99.90
39401;DHT22;54391;50.000;7.360;2022-10-23T01:48:00;12.00;99.90
39401;DHT22;54391;50.000;7.360;2022-10-23T01:50:30;12.10;99.90
39401;DHT22;54391;50.000;7.360;2022-10-23T01:53:02;12.10;99.90
39401;DHT22;54391;50.000;7.360;2022-10-23T01:55:31;12.20;99.90
39401;DHT22;54391;50.000;7.360;2022-10-23T01:58:04;12.20;99.90
39401;DHT22;54391;50.000;7.360;2022-10-23T02:00:37;12.30;99.90
39401;DHT22;54391;50.000;7.360;2022-10-23T02:03:07;12.30;99.90
39401;DHT22;54391;50.000;7.360;2022-10-23T02:05:36;12.30;99.90
39401;DHT22;54391;50.000;7.360;2022-10-23T02:08:05;12.30;99.90
39401;DHT22;54391;50.000;7.360;2022-10-23T02:10:39;12.20;99.70
39401;DHT22;54391;50.000;7.360;2022-10-23T02:13:12;11.90;99.90
39401;DHT22;54391;50.000;7.360;2022-10-23T02:15:46;12.10;99.90
39401;DHT22;54391;50.000;7.360;2022-10-23T02:18:26;12.10;99.90
39401;DHT22;54391;50.000;7.360;2022-10-23T02:20:58;12.20;99.50
39401;DHT22;54391;50.000;7.360;2022-10-23T02:23:29;12.20;99.90
39401;DHT22;54391;50.000;7.360;2022-10-23T02:26:03;12.20;99.80
39401;DHT22;54391;50.000;7.360;2022-10-23T02:28:38;12.10;99.70
39401;DHT22;54391;50.000;7.360;2022-10-23T02:31:09;12.10;99.40
39401;DHT22;54391;50.000;7.360;2022-10-23T02:33:38;12.10;99.90
39401;DHT22;54391;50.000;7.360;2022-10-23T02:36:07;12.10;99.90
39401;DHT22;54391;50.000;7.360;2022-10-23T02:38:36;12.10;99.90
39401;DHT22;54391;50.000;7.360;2022-10-23T02:41:25;12.00;99.40
39401;DHT22;54391;50.000;7.360;2022-10-23T02:44:09;12.00;99.00
39401;DHT22;54391;50.000;7.360;2022-10-23T02:46:49;11.80;99.60
39401;DHT22;54391;50.000;7.360;2022-10-23T02:49:24;11.70;99.90
39401;DHT22;54391;50.000;7.360;2022-10-23T02:51:59;11.70;99.90
39401;DHT22;54391;50.000;7.360;2022-10-23T02:54:41;11.80;99.90
39401;DHT22;54391;50.000;7.360;2022-10-23T02:57:18;11.90;99.90
39401;DHT22;54391;50.000;7.360;2022-10-23T02:59:55;11.90;98.40
39401;DHT22;54391;50.000;7.360;2022-10-23T03:02:29;11.90;99.00
39401;DHT22;54391;50.000;7.360;2022-10-23T03:04:59;12.00;98.60
39401;DHT22;54391;50.000;7.360;2022-10-23T03:07:32;11.90;96.40
39401;DHT22;54391;50.000;7.360;2022-10-23T03:10:05;11.90;96.10
39401;DHT22;54391;50.000;7.360;2022-10-23T03:12:33;11.90;96.90
39401;DHT22;54391;50.000;7.360;2022-10-23T03:15:02;11.90;96.80
39401;DHT22;54391;50.000;7.360;2022-10-23T03:17:29;11.90;96.80
39401;DHT22;54391;50.000;7.360;2022-10-23T03:19:59;11.90;95.90
39401;DHT22;54391;50.000;7.360;2022-10-23T03:22:27;11.90;96.90
39401;DHT22;54391;50.000;7.360;2022-10-23T03:24:55;12.00;95.70
39401;DHT22;54391;50.000;7.360;2022-10-23T03:27:22;12.00;95.10
39401;DHT22;54391;50.000;7.360;2022-10-23T03:29:50;12.10;94.30
39401;DHT22;54391;50.000;7.360;2022-10-23T03:32:19;12.00;94.80
39401;DHT22;54391;50.000;7.360;2022-10-23T03:34:47;12.10;94.10
39401;DHT22;54391;50.000;7.360;2022-10-23T03:37:14;12.20;93.10
39401;DHT22;54391;50.000;7.360;2022-10-23T03:39:41;12.20;92.00
39401;DHT22;54391;50.000;7.360;2022-10-23T03:42:08;12.20;90.90
39401;DHT22;54391;50.000;7.360;2022-10-23T03:44:36;12.20;91.10
39401;DHT22;54391;50.000;7.360;2022-10-23T03:47:03;12.10;90.90
39401;DHT22;54391;50.000;7.360;2022-10-23T03:49:32;12.10;91.10
39401;DHT22;54391;50.000;7.360;2022-10-23T03:52:04;11.90;91.60
39401;DHT22;54391;50.000;7.360;2022-10-23T03:54:32;11.90;93.80
39401;DHT22;54391;50.000;7.360;2022-10-23T03:57:00;11.90;93.50
39401;DHT22;54391;50.000;7.360;2022-10-23T03:59:30;11.70;94.10
39401;DHT22;54391;50.000;7.360;2022-10-23T04:01:58;11.70;95.00
39401;DHT22;54391;50.000;7.360;2022-10-23T04:04:27;11.70;96.00
39401;DHT22;54391;50.000;7.360;2022-10-23T04:06:56;11.70;95.60
39401;DHT22;54391;50.000;7.360;2022-10-23T04:09:23;11.80;95.30
39401;DHT22;54391;50.000;7.360;2022-10-23T04:11:51;11.70;93.90
39401;DHT22;54391;50.000;7.360;2022-10-23T04:14:18;11.60;95.20
39401;DHT22;54391;50.000;7.360;2022-10-23T04:16:46;11.60;96.10
39401;DHT22;54391;50.000;7.360;2022-10-23T04:19:13;11.60;96.40
39401;DHT22;54391;50.000;7.360;2022-10-23T04:21:42;11.70;95.20
39401;DHT22;54391;50.000;7.360;2022-10-23T04:24:12;11.80;93.10
39401;DHT22;54391;50.000;7.360;2022-10-23T04:26:40;11.70;93.90
39401;DHT22;54391;50.000;7.360;2022-10-23T04:29:09;11.80;93.10
39401;DHT22;54391;50.000;7.360;2022-10-23T04:31:36;11.60;93.40
39401;DHT22;54391;50.000;7.360;2022-10-23T04:34:04;11.60;95.00
39401;DHT22;54391;50.000;7.360;2022-10-23T04:36:34;11.60;95.00
39401;DHT22;54391;50.000;7.360;2022-10-23T04:39:07;11.50;95.40
39401;DHT22;54391;50.000;7.360;2022-10-23T04:41:37;11.40;94.90
39401;DHT22;54391;50.000;7.360;2022-10-23T04:44:05;11.30;95.30
39401;DHT22;54391;50.000;7.360;2022-10-23T04:46:36;11.50;96.00
39401;DHT22;54391;50.000;7.360;2022-10-23T04:49:04;11.30;94.90
39401;DHT22;54391;50.000;7.360;2022-10-23T04:51:58;11.40;94.00
39401;DHT22;54391;50.000;7.360;2022-10-23T04:54:42;11.30;95.30
39401;DHT22;54391;50.000;7.360;2022-10-23T04:57:31;11.20;96.80
39401;DHT22;54391;50.000;7.360;2022-10-23T05:00:10;11.20;97.20
39401;DHT22;54391;50.000;7.360;2022-10-23T05:02:43;11.20;97.90
39401;DHT22;54391;50.000;7.360;2022-10-23T05:05:13;11.10;98.50
39401;DHT22;54391;50.000;7.360;2022-10-23T05:07:55;11.10;98.60
39401;DHT22;54391;50.000;7.360;2022-10-23T05:10:42;11.10;98.10
39401;DHT22;54391;50.000;7.360;2022-10-23T05:18:12;11.10;97.20
39401;DHT22;54391;50.000;7.360;2022-10-23T05:20:44;11.00;96.00
39401;DHT22;54391;50.000;7.360;2022-10-23T05:23:15;11.00;96.70
39401;DHT22;54391;50.000;7.360;2022-10-23T05:25:53;11.00;96.80
39401;DHT22;54391;50.000;7.360;2022-10-23T05:30:50;11.00;96.20
39401;DHT22;54391;50.000;7.360;2022-10-23T05:33:23;11.00;96.60
39401;DHT22;54391;50.000;7.360;2022-10-23T05:35:51;11.00;96.30
39401;DHT22;54391;50.000;7.360;2022-10-23T05:38:20;11.00;94.80
39401;DHT22;54391;50.000;7.360;2022-10-23T05:40:50;9.90;93.90
39401;DHT22;54391;50.000;7.360;2022-10-23T05:43:19;10.90;95.30
39401;DHT22;54391;50.000;7.360;2022-10-23T05:45:54;10.80;96.10
39401;DHT22;54391;50.000;7.360;2022-10-23T05:48:30;10.60;95.70
39401;DHT22;54391;50.000;7.360;2022-10-23T05:51:17;10.60;96.00
39401;DHT22;54391;50.000;7.360;2022-10-23T05:54:00;10.60;97.50
39401;DHT22;54391;50.000;7.360;2022-10-23T05:56:38;10.60;98.20
39401;DHT22;54391;50.000;7.360;2022-10-23T06:01:50;10.70;97.40
39401;DHT22;54391;50.000;7.360;2022-10-23T06:12:12;10.60;96.60
39401;DHT22;54391;50.000;7.360;2022-10-23T06:14:43;10.60;97.10
39401;DHT22;54391;50.000;7.360;2022-10-23T06:19:43;10.80;94.30
39401;DHT22;54391;50.000;7.360;2022-10-23T06:22:12;10.70;94.80
39401;DHT22;54391;50.000;7.360;2022-10-23T06:24:49;10.70;94.50
39401;DHT22;54391;50.000;7.360;2022-10-23T06:27:24;10.50;94.60
39401;DHT22;54391;50.000;7.360;2022-10-23T06:43:03;9.50;99.90
39401;DHT22;54391;50.000;7.360;2022-10-23T06:45:33;9.80;99.90
39401;DHT22;54391;50.000;7.360;2022-10-23T06:55:47;10.70;96.10
39401;DHT22;54391;50.000;7.360;2022-10-23T06:58:15;11.40;86.50
39401;DHT22;54391;50.000;7.360;2022-10-23T07:00:59;11.60;82.40
39401;DHT22;54391;50.000;7.360;2022-10-23T07:03:29;11.70;79.90
39401;DHT22;54391;50.000;7.360;2022-10-23T07:05:59;11.90;76.20
39401;DHT22;54391;50.000;7.360;2022-10-23T07:08:28;11.90;74.30
39401;DHT22;54391;50.000;7.360;2022-10-23T07:10:56;12.10;71.80
39401;DHT22;54391;50.000;7.360;2022-10-23T07:13:24;12.20;71.40
39401;DHT22;54391;50.000;7.360;2022-10-23T07:16:12;12.40;68.70
39401;DHT22;54391;50.000;7.360;2022-10-23T07:18:42;12.40;68.10
39401;DHT22;54391;50.000;7.360;2022-10-23T07:21:25;12.50;67.00
39401;DHT22;54391;50.000;7.360;2022-10-23T07:23:57;12.50;66.80
39401;DHT22;54391;50.000;7.360;2022-10-23T07:26:25;12.40;66.10
39401;DHT22;54391;50.000;7.360;2022-10-23T07:28:53;12.50;64.90
39401;DHT22;54391;50.000;7.360;2022-10-23T07:31:22;12.50;64.10
39401;DHT22;54391;50.000;7.360;2022-10-23T07:34:12;12.70;62.40
39401;DHT22;54391;50.000;7.360;2022-10-23T07:36:40;13.10;56.90
39401;DHT22;54391;50.000;7.360;2022-10-23T07:41:44;13.40;56.30
39401;DHT22;54391;50.000;7.360;2022-10-23T07:46:39;12.30;67.90
39401;DHT22;54391;50.000;7.360;2022-10-23T07:49:11;12.30;69.10
39401;DHT22;54391;50.000;7.360;2022-10-23T07:51:39;12.70;67.90
39401;DHT22;54391;50.000;7.360;2022-10-23T07:54:10;12.70;68.90
39401;DHT22;54391;50.000;7.360;2022-10-23T07:57:14;13.30;62.10
39401;DHT22;54391;50.000;7.360;2022-10-23T07:59:46;14.20;49.20
39401;DHT22;54391;50.000;7.360;2022-10-23T08:02:18;14.10;50.00
39401;DHT22;54391;50.000;7.360;2022-10-23T08:04:50;14.10;49.20
39401;DHT22;54391;50.000;7.360;2022-10-23T08:07:29;14.20;49.10
39401;DHT22;54391;50.000;7.360;2022-10-23T08:09:57;13.80;54.60
39401;DHT22;54391;50.000;7.360;2022-10-23T08:12:25;14.40;55.50
39401;DHT22;54391;50.000;7.360;2022-10-23T08:14:54;13.70;54.60
39401;DHT22;54391;50.000;7.360;2022-10-23T08:17:22;13.70;56.70
39401;DHT22;54391;50.000;7.360;2022-10-23T08:20:11;13.00;64.90
39401;DHT22;54391;50.000;7.360;2022-10-23T08:22:41;13.00;65.80
39401;DHT22;54391;50.000;7.360;2022-10-23T08:25:10;13.10;68.80
39401;DHT22;54391;50.000;7.360;2022-10-23T08:27:37;13.50;63.20
39401;DHT22;54391;50.000;7.360;2022-10-23T08:30:05;13.50;59.80
39401;DHT22;54391;50.000;7.360;2022-10-23T08:32:33;13.50;61.10
39401;DHT22;54391;50.000;7.360;2022-10-23T08:35:02;13.50;61.40
39401;DHT22;54391;50.000;7.360;2022-10-23T08:37:32;13.50;62.50
39401;DHT22;54391;50.000;7.360;2022-10-23T08:39:59;13.40;62.20
39401;DHT22;54391;50.000;7.360;2022-10-23T08:42:50;13.40;63.00
39401;DHT22;54391;50.000;7.360;2022-10-23T08:45:27;13.30;62.40
39401;DHT22;54391;50.000;7.360;2022-10-23T08:48:09;13.40;62.90
39401;DHT22;54391;50.000;7.360;2022-10-23T08:51:04;13.50;61.20
39401;DHT22;54391;50.000;7.360;2022-10-23T08:53:37;13.50;62.50
39401;DHT22;54391;50.000;7.360;2022-10-23T08:56:11;13.60;60.10
39401;DHT22;54391;50.000;7.360;2022-10-23T08:58:42;13.70;59.70
39401;DHT22;54391;50.000;7.360;2022-10-23T09:01:24;14.00;57.10
39401;DHT22;54391;50.000;7.360;2022-10-23T09:03:52;14.00;57.30
39401;DHT22;54391;50.000;7.360;2022-10-23T09:06:29;14.00;58.00
39401;DHT22;54391;50.000;7.360;2022-10-23T09:09:11;13.80;58.50
39401;DHT22;54391;50.000;7.360;2022-10-23T09:11:48;13.90;60.40
39401;DHT22;54391;50.000;7.360;2022-10-23T09:14:49;13.90;59.70
39401;DHT22;54391;50.000;7.360;2022-10-23T09:17:24;13.80;62.10
39401;DHT22;54391;50.000;7.360;2022-10-23T09:19:58;13.50;64.30
39401;DHT22;54391;50.000;7.360;2022-10-23T09:22:28;13.50;64.60
39401;DHT22;54391;50.000;7.360;2022-10-23T09:29:53;13.40;61.90
39401;DHT22;54391;50.000;7.360;2022-10-23T09:32:32;13.40;62.90
39401;DHT22;54391;50.000;7.360;2022-10-23T09:34:59;13.30;64.60
39401;DHT22;54391;50.000;7.360;2022-10-23T09:37:29;13.30;66.40
39401;DHT22;54391;50.000;7.360;2022-10-23T09:40:15;13.60;64.80
39401;DHT22;54391;50.000;7.360;2022-10-23T09:42:52;13.60;65.30
39401;DHT22;54391;50.000;7.360;2022-10-23T09:45:22;13.60;66.80
39401;DHT22;54391;50.000;7.360;2022-10-23T09:50:48;13.40;67.30
39401;DHT22;54391;50.000;7.360;2022-10-23T09:53:17;13.40;65.00
39401;DHT22;54391;50.000;7.360;2022-10-23T09:55:52;13.40;65.50
39401;DHT22;54391;50.000;7.360;2022-10-23T09:58:26;13.20;67.60
39401;DHT22;54391;50.000;7.360;2022-10-23T10:00:56;13.10;71.10
39401;DHT22;54391;50.000;7.360;2022-10-23T10:03:47;13.10;74.80
39401;DHT22;54391;50.000;7.360;2022-10-23T10:06:20;13.10;75.80
39401;DHT22;54391;50.000;7.360;2022-10-23T10:08:50;13.20;74.80
39401;DHT22;54391;50.000;7.360;2022-10-23T10:11:25;13.20;74.90
39401;DHT22;54391;50.000;7.360;2022-10-23T10:14:05;13.30;72.80
39401;DHT22;54391;50.000;7.360;2022-10-23T10:16:47;13.30;72.20
39401;DHT22;54391;50.000;7.360;2022-10-23T10:19:30;13.20;74.50
39401;DHT22;54391;50.000;7.360;2022-10-23T10:22:04;13.30;75.80
39401;DHT22;54391;50.000;7.360;2022-10-23T10:24:40;13.30;76.90
39401;DHT22;54391;50.000;7.360;2022-10-23T10:27:33;13.40;74.90
39401;DHT22;54391;50.000;7.360;2022-10-23T10:30:10;13.90;69.30
39401;DHT22;54391;50.000;7.360;2022-10-23T10:32:44;13.90;67.80
39401;DHT22;54391;50.000;7.360;2022-10-23T10:35:21;14.40;57.60
39401;DHT22;54391;50.000;7.360;2022-10-23T10:41:28;14.80;53.80
39401;DHT22;54391;50.000;7.360;2022-10-23T10:46:55;14.80;53.90
39401;DHT22;54391;50.000;7.360;2022-10-23T10:49:34;15.00;52.60
39401;DHT22;54391;50.000;7.360;2022-10-23T10:52:42;15.00;55.10
39401;DHT22;54391;50.000;7.360;2022-10-23T10:55:18;14.90;56.00
39401;DHT22;54391;50.000;7.360;2022-10-23T10:57:49;15.00;58.70
39401;DHT22;54391;50.000;7.360;2022-10-23T11:00:21;15.20;56.40
39401;DHT22;54391;50.000;7.360;2022-10-23T11:02:52;15.20;55.50
39401;DHT22;54391;50.000;7.360;2022-10-23T11:05:28;15.20;56.60
39401;DHT22;54391;50.000;7.360;2022-10-23T11:08:00;14.80;59.00
39401;DHT22;54391;50.000;7.360;2022-10-23T11:10:29;14.80;59.70
39401;DHT22;54391;50.000;7.360;2022-10-23T11:12:57;14.70;63.80
39401;DHT22;54391;50.000;7.360;2022-10-23T11:15:29;15.20;56.70
39401;DHT22;54391;50.000;7.360;2022-10-23T11:17:59;13.00;55.10
39401;DHT22;54391;50.000;7.360;2022-10-23T11:20:44;16.50;45.90
39401;DHT22;54391;50.000;7.360;2022-10-23T11:23:33;16.60;40.10
39401;DHT22;54391;50.000;7.360;2022-10-23T11:26:12;16.90;39.00
39401;DHT22;54391;50.000;7.360;2022-10-23T11:28:52;17.40;36.00
39401;DHT22;54391;50.000;7.360;2022-10-23T11:31:32;17.50;37.00
39401;DHT22;54391;50.000;7.360;2022-10-23T11:34:29;17.80;36.70
39401;DHT22;54391;50.000;7.360;2022-10-23T11:37:02;17.10;39.20
39401;DHT22;54391;50.000;7.360;2022-10-23T11:39:31;17.00;37.80
39401;DHT22;54391;50.000;7.360;2022-10-23T11:42:12;16.70;39.80
39401;DHT22;54391;50.000;7.360;2022-10-23T11:44:42;16.60;43.00
39401;DHT22;54391;50.000;7.360;2022-10-23T11:47:32;16.70;42.00
39401;DHT22;54391;50.000;7.360;2022-10-23T11:50:23;16.70;38.80
39401;DHT22;54391;50.000;7.360;2022-10-23T11:52:57;16.80;41.00
39401;DHT22;54391;50.000;7.360;2022-10-23T11:55:27;16.90;39.10
39401;DHT22;54391;50.000;7.360;2022-10-23T11:58:17;16.90;37.90
39401;DHT22;54391;50.000;7.360;2022-10-23T12:00:53;17.00;38.50
39401;DHT22;54391;50.000;7.360;2022-10-23T12:03:27;17.20;36.20
39401;DHT22;54391;50.000;7.360;2022-10-23T12:05:58;17.20;36.40
39401;DHT22;54391;50.000;7.360;2022-10-23T12:08:29;17.10;38.00
39401;DHT22;54391;50.000;7.360;2022-10-23T12:10:57;17.10;37.00
39401;DHT22;54391;50.000;7.360;2022-10-23T12:13:41;17.20;38.40
39401;DHT22;54391;50.000;7.360;2022-10-23T12:16:08;17.20;38.80
39401;DHT22;54391;50.000;7.360;2022-10-23T12:18:46;17.20;38.70
39401;DHT22;54391;50.000;7.360;2022-10-23T12:21:17;17.30;37.20
39401;DHT22;54391;50.000;7.360;2022-10-23T12:27:23;17.30;37.30
39401;DHT22;54391;50.000;7.360;2022-10-23T12:30:13;17.30;37.80
39401;DHT22;54391;50.000;7.360;2022-10-23T12:32:56;17.30;38.80
39401;DHT22;54391;50.000;7.360;2022-10-23T12:35:59;17.40;38.00
39401;DHT22;54391;50.000;7.360;2022-10-23T12:38:30;17.50;38.40
39401;DHT22;54391;50.000;7.360;2022-10-23T12:43:32;17.40;36.80
39401;DHT22;54391;50.000;7.360;2022-10-23T12:46:03;17.30;37.00
39401;DHT22;54391;50.000;7.360;2022-10-23T12:48:32;17.10;41.40
39401;DHT22;54391;50.000;7.360;2022-10-23T12:51:01;17.00;43.50
39401;DHT22;54391;50.000;7.360;2022-10-23T12:53:30;16.90;43.90
39401;DHT22;54391;50.000;7.360;2022-10-23T12:55:59;17.00;45.80
39401;DHT22;54391;50.000;7.360;2022-10-23T12:58:31;17.20;44.10
39401;DHT22;54391;50.000;7.360;2022-10-23T13:01:03;17.50;42.90
39401;DHT22;54391;50.000;7.360;2022-10-23T13:03:32;17.60;38.80
39401;DHT22;54391;50.000;7.360;2022-10-23T13:06:02;17.60;38.80
39401;DHT22;54391;50.000;7.360;2022-10-23T13:08:38;17.60;39.80
39401;DHT22;54391;50.000;7.360;2022-10-23T13:11:29;17.50;39.50
39401;DHT22;54391;50.000;7.360;2022-10-23T13:14:00;17.60;39.90
39401;DHT22;54391;50.000;7.360;2022-10-23T13:16:29;17.90;38.90
39401;DHT22;54391;50.000;7.360;2022-10-23T13:18:56;17.80;38.40
39401;DHT22;54391;50.000;7.360;2022-10-23T13:21:26;18.00;37.40
39401;DHT22;54391;50.000;7.360;2022-10-23T13:23:55;17.90;35.40
39401;DHT22;54391;50.000;7.360;2022-10-23T13:26:29;17.60;36.90
39401;DHT22;54391;50.000;7.360;2022-10-23T13:28:57;17.50;38.80
39401;DHT22;54391;50.000;7.360;2022-10-23T13:31:30;17.50;39.10
39401;DHT22;54391;50.000;7.360;2022-10-23T13:34:16;17.50;38.40
39401;DHT22;54391;50.000;7.360;2022-10-23T13:37:01;17.70;36.90
39401;DHT22;54391;50.000;7.360;2022-10-23T13:39:30;17.60;37.30
39401;DHT22;54391;50.000;7.360;2022-10-23T13:42:04;17.60;36.20
39401;DHT22;54391;50.000;7.360;2022-10-23T13:44:36;17.40;37.50
39401;DHT22;54391;50.000;7.360;2022-10-23T13:47:04;17.40;38.80
39401;DHT22;54391;50.000;7.360;2022-10-23T13:49:31;17.40;39.40
39401;DHT22;54391;50.000;7.360;2022-10-23T13:52:00;17.50;39.00
39401;DHT22;54391;50.000;7.360;2022-10-23T13:56:56;17.50;38.50
39401;DHT22;54391;50.000;7.360;2022-10-23T13:59:23;17.50;39.70
39401;DHT22;54391;50.000;7.360;2022-10-23T14:01:51;17.40;39.10
39401;DHT22;54391;50.000;7.360;2022-10-23T14:04:18;17.40;39.60
39401;DHT22;54391;50.000;7.360;2022-10-23T14:06:46;17.20;39.60
39401;DHT22;54391;50.000;7.360;2022-10-23T14:09:16;17.20;42.00
39401;DHT22;54391;50.000;7.360;2022-10-23T14:11:44;17.10;42.30
39401;DHT22;54391;50.000;7.360;2022-10-23T14:14:12;17.10;42.30
39401;DHT22;54391;50.000;7.360;2022-10-23T14:16:39;17.10;43.60
39401;DHT22;54391;50.000;7.360;2022-10-23T14:19:07;17.10;44.20
39401;DHT22;54391;50.000;7.360;2022-10-23T14:24:03;17.00;43.40
39401;DHT22;54391;50.000;7.360;2022-10-23T14:26:31;17.00;44.50
39401;DHT22;54391;50.000;7.360;2022-10-23T14:31:28;16.90;45.60
39401;DHT22;54391;50.000;7.360;2022-10-23T14:33:57;16.70;46.40
39401;DHT22;54391;50.000;7.360;2022-10-23T14:36:26;16.70;46.40
39401;DHT22;54391;50.000;7.360;2022-10-23T14:41:22;16.70;45.70
39401;DHT22;54391;50.000;7.360;2022-10-23T14:43:51;16.60;46.60
39401;DHT22;54391;50.000;7.360;2022-10-23T14:46:21;16.60;47.70
39401;DHT22;54391;50.000;7.360;2022-10-23T14:48:49;16.50;48.40
39401;DHT22;54391;50.000;7.360;2022-10-23T14:51:18;16.50;49.00
39401;DHT22;54391;50.000;7.360;2022-10-23T14:53:46;11.40;47.90
39401;DHT22;54391;50.000;7.360;2022-10-23T14:56:14;16.60;50.00
39401;DHT22;54391;50.000;7.360;2022-10-23T14:58:42;16.50;49.40
39401;DHT22;54391;50.000;7.360;2022-10-23T15:01:10;16.50;49.60
39401;DHT22;54391;50.000;7.360;2022-10-23T15:03:37;16.50;50.30
39401;DHT22;54391;50.000;7.360;2022-10-23T15:06:06;16.60;51.10
39401;DHT22;54391;50.000;7.360;2022-10-23T15:08:33;16.60;49.00
39401;DHT22;54391;50.000;7.360;2022-10-23T15:11:04;16.60;48.90
39401;DHT22;54391;50.000;7.360;2022-10-23T15:13:31;16.70;49.70
39401;DHT22;54391;50.000;7.360;2022-10-23T15:16:03;16.60;48.60
39401;DHT22;54391;50.000;7.360;2022-10-23T15:18:33;16.60;49.30
39401;DHT22;54391;50.000;7.360;2022-10-23T15:23:30;16.50;49.60
39401;DHT22;54391;50.000;7.360;2022-10-23T15:26:01;16.50;52.50
39401;DHT22;54391;50.000;7.360;2022-10-23T15:28:30;16.40;53.00
39401;DHT22;54391;50.000;7.360;2022-10-23T15:30:57;16.30;54.10
39401;DHT22;54391;50.000;7.360;2022-10-23T15:35:55;16.10;54.90
39401;DHT22;54391;50.000;7.360;2022-10-23T15:38:22;16.10;54.90
39401;DHT22;54391;50.000;7.360;2022-10-23T15:40:50;16.00;58.60
39401;DHT22;54391;50.000;7.360;2022-10-23T15:45:47;15.90;60.00
39401;DHT22;54391;50.000;7.360;2022-10-23T15:53:11;15.90;62.10
39401;DHT22;54391;50.000;7.360;2022-10-23T15:55:38;15.80;62.10
39401;DHT22;54391;50.000;7.360;2022-10-23T16:03:03;16.00;61.60
39401;DHT22;54391;50.000;7.360;2022-10-23T16:05:30;15.90;61.10
39401;DHT22;54391;50.000;7.360;2022-10-23T16:07:57;15.90;61.90
39401;DHT22;54391;50.000;7.360;2022-10-23T16:12:53;16.00;59.60
39401;DHT22;54391;50.000;7.360;2022-10-23T16:15:21;15.90;59.20
39401;DHT22;54391;50.000;7.360;2022-10-23T16:22:46;15.90;60.40
39401;DHT22;54391;50.000;7.360;2022-10-23T16:30:14;15.80;61.60
39401;DHT22;54391;50.000;7.360;2022-10-23T16:32:41;15.80;62.20
39401;DHT22;54391;50.000;7.360;2022-10-23T16:35:09;15.80;61.60
39401;DHT22;54391;50.000;7.360;2022-10-23T16:40:19;15.70;62.70
39401;DHT22;54391;50.000;7.360;2022-10-23T16:43:06;15.70;63.10
39401;DHT22;54391;50.000;7.360;2022-10-23T16:45:40;15.70;63.00
39401;DHT22;54391;50.000;7.360;2022-10-23T16:50:37;15.70;64.30
39401;DHT22;54391;50.000;7.360;2022-10-23T16:53:05;15.70;65.30
39401;DHT22;54391;50.000;7.360;2022-10-23T16:55:32;15.70;65.00
39401;DHT22;54391;50.000;7.360;2022-10-23T17:00:29;15.50;71.50
39401;DHT22;54391;50.000;7.360;2022-10-23T17:03:00;15.40;75.60
39401;DHT22;54391;50.000;7.360;2022-10-23T17:05:31;15.40;76.20
39401;DHT22;54391;50.000;7.360;2022-10-23T17:07:59;15.30;78.40
39401;DHT22;54391;50.000;7.360;2022-10-23T17:10:27;15.30;82.70
39401;DHT22;54391;50.000;7.360;2022-10-23T17:12:54;15.30;85.60
39401;DHT22;54391;50.000;7.360;2022-10-23T17:20:19;15.70;79.90
39401;DHT22;54391;50.000;7.360;2022-10-23T17:22:46;15.70;79.60
39401;DHT22;54391;50.000;7.360;2022-10-23T17:25:14;15.70;78.90
39401;DHT22;54391;50.000;7.360;2022-10-23T17:27:44;15.70;79.90
39401;DHT22;54391;50.000;7.360;2022-10-23T17:30:12;15.70;79.20
39401;DHT22;54391;50.000;7.360;2022-10-23T17:32:39;15.70;80.70
39401;DHT22;54391;50.000;7.360;2022-10-23T17:35:08;15.60;80.30
39401;DHT22;54391;50.000;7.360;2022-10-23T17:37:36;15.50;80.50
39401;DHT22;54391;50.000;7.360;2022-10-23T17:40:04;15.60;78.60
39401;DHT22;54391;50.000;7.360;2022-10-23T17:42:31;15.50;81.40
39401;DHT22;54391;50.000;7.360;2022-10-23T17:44:59;15.40;81.20
39401;DHT22;54391;50.000;7.360;2022-10-23T17:47:27;15.30;83.00
39401;DHT22;54391;50.000;7.360;2022-10-23T17:49:55;15.10;84.60
39401;DHT22;54391;50.000;7.360;2022-10-23T17:52:23;15.00;85.90
39401;DHT22;54391;50.000;7.360;2022-10-23T17:54:52;15.00;86.80
39401;DHT22;54391;50.000;7.360;2022-10-23T17:57:19;15.00;86.10
39401;DHT22;54391;50.000;7.360;2022-10-23T17:59:47;15.00;87.50
39401;DHT22;54391;50.000;7.360;2022-10-23T18:04:42;14.90;96.90